Weather at Berlin Brandenburg Airport

Public forecast

Using degrees Celsius for public forecast. Weather courtesy of forecast.io.

Current aviation weather report (METAR) for Berlin Brandenburg Airport

2024/05/19 07:20 (retrieved 34 minutes ago)

EDDB 190720Z AUTO 13003KT 050V190 CAVOK 17/13 Q1010 NOSIG

Aviation forecast (TAF) for Berlin Brandenburg Airport

2024/05/19 06:27 (retrieved 1 hour ago)

TAF TAF EDDB 190500Z 1906/2006 VRB03KT CAVOK BECMG 1907/1910 21006KT PROB30 TEMPO 1910/1915 SHRA SCT030TCU TEMPO 1915/1919 SHRA SCT025CB BECMG 1919/1921 15003KT TEMPO 2001/2005 0600 FG